sensor_id;sensor_type;location;lat;lon;timestamp;pressure;altitude;pressure_sealevel;temperature;humidity
64322;BME280;50659;48.078;16.308;2022-07-04T00:02:47;99293.88;;;24.30;47.53
64322;BME280;50659;48.078;16.308;2022-07-04T00:06:50;99299.78;;;24.25;47.18
64322;BME280;50659;48.078;16.308;2022-07-04T00:10:55;99300.81;;;24.05;47.70
64322;BME280;50659;48.078;16.308;2022-07-04T00:14:58;99301.25;;;24.07;48.48
64322;BME280;50659;48.078;16.308;2022-07-04T00:19:01;99302.34;;;24.02;48.05
64322;BME280;50659;48.078;16.308;2022-07-04T00:23:04;99291.69;;;23.92;48.50
64322;BME280;50659;48.078;16.308;2022-07-04T00:27:09;99288.31;;;23.87;48.38
64322;BME280;50659;48.078;16.308;2022-07-04T00:31:14;99293.72;;;23.37;49.77
64322;BME280;50659;48.078;16.308;2022-07-04T00:35:18;99286.63;;;23.28;49.76
64322;BME280;50659;48.078;16.308;2022-07-04T00:39:21;99290.34;;;23.32;50.30
64322;BME280;50659;48.078;16.308;2022-07-04T00:43:27;99289.91;;;23.45;49.58
64322;BME280;50659;48.078;16.308;2022-07-04T00:47:32;99282.78;;;23.20;50.22
64322;BME280;50659;48.078;16.308;2022-07-04T00:51:36;99288.94;;;22.98;50.58
64322;BME280;50659;48.078;16.308;2022-07-04T00:55:40;99292.00;;;22.93;50.72
64322;BME280;50659;48.078;16.308;2022-07-04T00:59:45;99290.03;;;22.82;50.76
64322;BME280;50659;48.078;16.308;2022-07-04T01:03:48;99285.34;;;22.98;50.61
64322;BME280;50659;48.078;16.308;2022-07-04T01:07:52;99283.06;;;23.15;49.98
64322;BME280;50659;48.078;16.308;2022-07-04T01:11:55;99280.00;;;23.20;50.46
64322;BME280;50659;48.078;16.308;2022-07-04T01:15:59;99285.63;;;23.08;51.51
64322;BME280;50659;48.078;16.308;2022-07-04T01:20:03;99279.25;;;23.08;51.06
64322;BME280;50659;48.078;16.308;2022-07-04T01:24:10;99284.91;;;22.72;51.91
64322;BME280;50659;48.078;16.308;2022-07-04T01:28:13;99283.63;;;22.69;52.21
64322;BME280;50659;48.078;16.308;2022-07-04T01:32:16;99282.00;;;22.56;52.69
64322;BME280;50659;48.078;16.308;2022-07-04T01:36:19;99276.41;;;22.56;52.62
64322;BME280;50659;48.078;16.308;2022-07-04T01:40:24;99282.13;;;22.60;52.83
64322;BME280;50659;48.078;16.308;2022-07-04T01:44:27;99286.09;;;22.59;52.96
64322;BME280;50659;48.078;16.308;2022-07-04T01:48:30;99278.63;;;22.63;53.50
64322;BME280;50659;48.078;16.308;2022-07-04T01:52:33;99283.41;;;22.62;53.62
64322;BME280;50659;48.078;16.308;2022-07-04T01:56:38;99280.25;;;22.52;53.16
64322;BME280;50659;48.078;16.308;2022-07-04T02:00:41;99279.09;;;22.41;53.85
64322;BME280;50659;48.078;16.308;2022-07-04T02:05:01;99287.59;;;22.08;55.53
64322;BME280;50659;48.078;16.308;2022-07-04T02:09:04;99277.84;;;22.14;55.19
64322;BME280;50659;48.078;16.308;2022-07-04T02:13:21;99287.16;;;22.18;54.69
64322;BME280;50659;48.078;16.308;2022-07-04T02:17:24;99278.78;;;22.18;54.87
64322;BME280;50659;48.078;16.308;2022-07-04T02:21:27;99281.09;;;22.16;54.48
64322;BME280;50659;48.078;16.308;2022-07-04T02:25:31;99271.66;;;22.21;53.28
64322;BME280;50659;48.078;16.308;2022-07-04T02:29:35;99277.38;;;22.12;53.67
64322;BME280;50659;48.078;16.308;2022-07-04T02:33:39;99272.44;;;22.09;53.21
64322;BME280;50659;48.078;16.308;2022-07-04T02:37:42;99270.00;;;22.08;53.33
64322;BME280;50659;48.078;16.308;2022-07-04T02:41:45;99263.25;;;21.97;54.15
64322;BME280;50659;48.078;16.308;2022-07-04T02:45:49;99265.56;;;21.95;54.45
64322;BME280;50659;48.078;16.308;2022-07-04T02:49:53;99271.00;;;21.67;55.02
64322;BME280;50659;48.078;16.308;2022-07-04T02:53:56;99267.25;;;21.52;54.95
64322;BME280;50659;48.078;16.308;2022-07-04T02:57:59;99261.09;;;21.58;54.39
64322;BME280;50659;48.078;16.308;2022-07-04T03:02:04;99254.06;;;21.52;55.02
64322;BME280;50659;48.078;16.308;2022-07-04T03:06:07;99263.06;;;21.57;54.53
64322;BME280;50659;48.078;16.308;2022-07-04T03:10:11;99256.75;;;21.48;54.82
64322;BME280;50659;48.078;16.308;2022-07-04T03:14:14;99270.41;;;21.62;55.06
64322;BME280;50659;48.078;16.308;2022-07-04T03:18:18;99263.78;;;21.66;54.69
64322;BME280;50659;48.078;16.308;2022-07-04T03:22:21;99270.16;;;21.67;53.57
64322;BME280;50659;48.078;16.308;2022-07-04T03:26:25;99275.69;;;21.75;53.54
64322;BME280;50659;48.078;16.308;2022-07-04T03:30:28;99281.63;;;21.86;52.58
64322;BME280;50659;48.078;16.308;2022-07-04T03:34:32;99279.41;;;21.79;53.89
64322;BME280;50659;48.078;16.308;2022-07-04T03:38:36;99281.63;;;21.86;54.51
64322;BME280;50659;48.078;16.308;2022-07-04T03:42:39;99284.19;;;21.91;53.55
64322;BME280;50659;48.078;16.308;2022-07-04T03:46:42;99288.28;;;22.05;53.09
64322;BME280;50659;48.078;16.308;2022-07-04T03:50:46;99286.91;;;22.23;53.26
64322;BME280;50659;48.078;16.308;2022-07-04T03:54:49;99288.66;;;22.28;51.83
64322;BME280;50659;48.078;16.308;2022-07-04T03:58:52;99306.28;;;22.28;53.16
64322;BME280;50659;48.078;16.308;2022-07-04T04:02:55;99305.56;;;22.43;51.69
64322;BME280;50659;48.078;16.308;2022-07-04T04:07:00;99303.47;;;22.52;52.06
64322;BME280;50659;48.078;16.308;2022-07-04T04:11:03;99313.69;;;22.72;52.12
64322;BME280;50659;48.078;16.308;2022-07-04T04:15:07;99330.75;;;22.91;51.25
64322;BME280;50659;48.078;16.308;2022-07-04T04:19:10;99323.25;;;22.95;51.33
64322;BME280;50659;48.078;16.308;2022-07-04T04:23:15;99328.94;;;23.11;51.80
64322;BME280;50659;48.078;16.308;2022-07-04T04:27:18;99321.06;;;23.28;50.27
64322;BME280;50659;48.078;16.308;2022-07-04T04:31:21;99326.34;;;23.45;50.44
64322;BME280;50659;48.078;16.308;2022-07-04T04:35:24;99325.94;;;23.71;49.08
64322;BME280;50659;48.078;16.308;2022-07-04T04:39:29;99328.81;;;24.32;46.58
64322;BME280;50659;48.078;16.308;2022-07-04T04:43:32;99337.38;;;24.86;46.95
64322;BME280;50659;48.078;16.308;2022-07-04T04:47:35;99330.91;;;25.20;46.21
64322;BME280;50659;48.078;16.308;2022-07-04T04:51:38;99339.72;;;25.37;46.65
64322;BME280;50659;48.078;16.308;2022-07-04T04:55:43;99336.78;;;26.10;45.67
64322;BME280;50659;48.078;16.308;2022-07-04T04:59:46;99338.75;;;26.73;42.28
64322;BME280;50659;48.078;16.308;2022-07-04T05:03:55;99347.84;;;26.89;42.99
64322;BME280;50659;48.078;16.308;2022-07-04T05:07:58;99345.63;;;28.66;40.54
64322;BME280;50659;48.078;16.308;2022-07-04T05:12:04;99361.06;;;30.43;35.26
64322;BME280;50659;48.078;16.308;2022-07-04T05:16:07;99364.66;;;30.12;36.08
64322;BME280;50659;48.078;16.308;2022-07-04T05:20:10;99360.88;;;29.05;36.40
64322;BME280;50659;48.078;16.308;2022-07-04T05:24:14;99356.09;;;28.62;37.89
64322;BME280;50659;48.078;16.308;2022-07-04T05:28:19;99364.25;;;28.77;37.49
64322;BME280;50659;48.078;16.308;2022-07-04T05:32:22;99361.84;;;28.33;38.78
64322;BME280;50659;48.078;16.308;2022-07-04T05:36:25;99367.44;;;28.29;39.65
64322;BME280;50659;48.078;16.308;2022-07-04T05:40:30;99367.28;;;28.48;39.57
64322;BME280;50659;48.078;16.308;2022-07-04T05:44:35;99363.28;;;29.74;35.77
64322;BME280;50659;48.078;16.308;2022-07-04T05:48:38;99372.00;;;31.38;33.79
64322;BME280;50659;48.078;16.308;2022-07-04T05:52:41;99369.53;;;32.40;32.03
64322;BME280;50659;48.078;16.308;2022-07-04T05:56:44;99374.44;;;32.40;30.73
64322;BME280;50659;48.078;16.308;2022-07-04T06:00:48;99380.63;;;35.06;27.88
64322;BME280;50659;48.078;16.308;2022-07-04T06:04:52;99393.28;;;36.13;26.38
64322;BME280;50659;48.078;16.308;2022-07-04T06:08:54;99391.69;;;37.46;24.89
64322;BME280;50659;48.078;16.308;2022-07-04T06:12:58;99400.31;;;35.89;27.46
64322;BME280;50659;48.078;16.308;2022-07-04T06:17:02;99402.59;;;35.55;27.00
64322;BME280;50659;48.078;16.308;2022-07-04T06:21:06;99400.69;;;34.23;30.08
64322;BME280;50659;48.078;16.308;2022-07-04T06:25:11;99406.38;;;32.58;33.44
64322;BME280;50659;48.078;16.308;2022-07-04T06:29:17;99406.03;;;32.49;31.71
64322;BME280;50659;48.078;16.308;2022-07-04T06:33:21;99407.16;;;34.27;28.88
64322;BME280;50659;48.078;16.308;2022-07-04T06:37:24;99430.19;;;34.96;28.36
64322;BME280;50659;48.078;16.308;2022-07-04T06:41:27;99434.28;;;34.38;30.29
64322;BME280;50659;48.078;16.308;2022-07-04T06:45:30;99437.50;;;32.86;32.31
64322;BME280;50659;48.078;16.308;2022-07-04T06:49:36;99439.69;;;31.47;33.91
64322;BME280;50659;48.078;16.308;2022-07-04T06:53:40;99441.38;;;33.93;30.89
64322;BME280;50659;48.078;16.308;2022-07-04T06:57:43;99461.78;;;36.20;28.38
64322;BME280;50659;48.078;16.308;2022-07-04T07:01:46;99463.94;;;35.93;27.81
64322;BME280;50659;48.078;16.308;2022-07-04T07:05:51;99459.19;;;34.01;31.64
64322;BME280;50659;48.078;16.308;2022-07-04T07:10:03;99466.09;;;34.03;30.72
64322;BME280;50659;48.078;16.308;2022-07-04T07:14:07;99468.84;;;35.73;28.10
64322;BME280;50659;48.078;16.308;2022-07-04T07:18:11;99469.94;;;37.59;25.17
64322;BME280;50659;48.078;16.308;2022-07-04T07:22:15;99466.59;;;35.15;28.38
64322;BME280;50659;48.078;16.308;2022-07-04T07:26:19;99454.50;;;35.04;28.68
64322;BME280;50659;48.078;16.308;2022-07-04T07:30:22;99452.53;;;36.32;26.74
64322;BME280;50659;48.078;16.308;2022-07-04T07:34:25;99456.69;;;37.01;25.30
64322;BME280;50659;48.078;16.308;2022-07-04T07:38:29;99464.47;;;37.65;24.39
64322;BME280;50659;48.078;16.308;2022-07-04T07:42:32;99465.13;;;38.29;23.47
64322;BME280;50659;48.078;16.308;2022-07-04T07:46:36;99447.34;;;36.07;26.10
64322;BME280;50659;48.078;16.308;2022-07-04T07:50:39;99445.75;;;37.12;24.46
64322;BME280;50659;48.078;16.308;2022-07-04T07:54:43;99427.88;;;35.79;26.26
64322;BME280;50659;48.078;16.308;2022-07-04T07:59:00;99417.47;;;33.47;29.05
64322;BME280;50659;48.078;16.308;2022-07-04T08:03:03;99414.06;;;31.85;31.69
64322;BME280;50659;48.078;16.308;2022-07-04T08:07:24;99421.22;;;32.18;30.91
64322;BME280;50659;48.078;16.308;2022-07-04T08:11:28;99406.19;;;35.39;27.05
64322;BME280;50659;48.078;16.308;2022-07-04T08:15:31;99418.81;;;36.04;25.68
64322;BME280;50659;48.078;16.308;2022-07-04T08:19:35;99394.56;;;34.51;27.89
64322;BME280;50659;48.078;16.308;2022-07-04T08:23:38;99397.44;;;33.54;29.70
64322;BME280;50659;48.078;16.308;2022-07-04T08:27:58;99402.84;;;34.12;28.67
64322;BME280;50659;48.078;16.308;2022-07-04T08:32:02;99408.25;;;34.63;28.11
64322;BME280;50659;48.078;16.308;2022-07-04T08:36:05;99417.16;;;34.38;28.23
64322;BME280;50659;48.078;16.308;2022-07-04T08:40:09;99421.94;;;34.45;28.61
64322;BME280;50659;48.078;16.308;2022-07-04T08:44:14;99433.25;;;33.52;29.45
64322;BME280;50659;48.078;16.308;2022-07-04T08:48:21;99442.38;;;33.36;30.13
64322;BME280;50659;48.078;16.308;2022-07-04T08:52:31;99432.91;;;32.41;31.16
64322;BME280;50659;48.078;16.308;2022-07-04T08:56:37;99433.97;;;31.85;32.17
64322;BME280;50659;48.078;16.308;2022-07-04T09:01:02;99431.59;;;31.00;33.52
64322;BME280;50659;48.078;16.308;2022-07-04T09:05:06;99428.72;;;30.58;34.69
64322;BME280;50659;48.078;16.308;2022-07-04T09:09:10;99429.38;;;30.10;36.37
64322;BME280;50659;48.078;16.308;2022-07-04T09:13:13;99433.06;;;29.46;36.86
64322;BME280;50659;48.078;16.308;2022-07-04T09:17:18;99424.81;;;29.20;37.17
64322;BME280;50659;48.078;16.308;2022-07-04T09:21:23;99428.59;;;28.91;37.22
64322;BME280;50659;48.078;16.308;2022-07-04T09:25:45;99423.53;;;28.67;37.75
64322;BME280;50659;48.078;16.308;2022-07-04T09:29:51;99414.66;;;28.65;38.15
64322;BME280;50659;48.078;16.308;2022-07-04T09:33:58;99417.06;;;28.63;41.75
64322;BME280;50659;48.078;16.308;2022-07-04T09:38:04;99412.31;;;28.01;41.40
64322;BME280;50659;48.078;16.308;2022-07-04T09:42:07;99415.69;;;28.14;42.67
64322;BME280;50659;48.078;16.308;2022-07-04T09:46:10;99384.22;;;28.52;40.86
64322;BME280;50659;48.078;16.308;2022-07-04T09:50:16;99376.28;;;29.11;37.81
64322;BME280;50659;48.078;16.308;2022-07-04T09:54:23;99377.03;;;29.69;38.27
64322;BME280;50659;48.078;16.308;2022-07-04T09:58:28;99377.25;;;30.25;37.51
64322;BME280;50659;48.078;16.308;2022-07-04T10:02:31;99370.41;;;30.47;37.67
64322;BME280;50659;48.078;16.308;2022-07-04T10:06:38;99378.13;;;30.71;35.10
64322;BME280;50659;48.078;16.308;2022-07-04T10:10:41;99388.66;;;30.70;36.01
64322;BME280;50659;48.078;16.308;2022-07-04T10:14:46;99378.88;;;30.26;38.75
64322;BME280;50659;48.078;16.308;2022-07-04T10:18:54;99384.94;;;30.28;38.52
64322;BME280;50659;48.078;16.308;2022-07-04T10:22:59;99389.09;;;30.76;39.46
64322;BME280;50659;48.078;16.308;2022-07-04T10:27:03;99385.41;;;31.07;36.96
64322;BME280;50659;48.078;16.308;2022-07-04T10:31:06;99391.91;;;31.25;36.05
64322;BME280;50659;48.078;16.308;2022-07-04T10:35:12;99401.56;;;31.51;37.99
64322;BME280;50659;48.078;16.308;2022-07-04T10:39:21;99397.59;;;32.35;34.09
64322;BME280;50659;48.078;16.308;2022-07-04T10:48:02;99397.22;;;35.60;28.81
64322;BME280;50659;48.078;16.308;2022-07-04T10:52:11;99392.38;;;36.35;27.25
64322;BME280;50659;48.078;16.308;2022-07-04T11:01:12;99399.19;;;40.06;22.95
64322;BME280;50659;48.078;16.308;2022-07-04T11:05:15;99386.31;;;39.42;23.04
64322;BME280;50659;48.078;16.308;2022-07-04T11:09:21;99383.06;;;39.19;22.55
64322;BME280;50659;48.078;16.308;2022-07-04T11:13:25;99384.81;;;38.92;22.44
64322;BME280;50659;48.078;16.308;2022-07-04T11:17:37;99380.00;;;37.53;25.92
64322;BME280;50659;48.078;16.308;2022-07-04T11:21:40;99379.00;;;36.99;25.63
64322;BME280;50659;48.078;16.308;2022-07-04T11:25:44;99380.13;;;36.70;25.45
64322;BME280;50659;48.078;16.308;2022-07-04T11:29:49;99382.34;;;37.87;25.06
64322;BME280;50659;48.078;16.308;2022-07-04T11:33:54;99377.13;;;37.53;26.02
64322;BME280;50659;48.078;16.308;2022-07-04T11:37:58;99378.72;;;37.70;25.71
64322;BME280;50659;48.078;16.308;2022-07-04T11:42:01;99378.69;;;37.42;26.11
64322;BME280;50659;48.078;16.308;2022-07-04T11:46:22;99374.28;;;37.53;25.77
64322;BME280;50659;48.078;16.308;2022-07-04T11:50:27;99360.53;;;38.30;24.85
64322;BME280;50659;48.078;16.308;2022-07-04T11:54:30;99355.06;;;37.22;25.77
64322;BME280;50659;48.078;16.308;2022-07-04T11:58:53;99349.16;;;36.81;26.98
64322;BME280;50659;48.078;16.308;2022-07-04T12:02:59;99351.84;;;36.56;26.84
64322;BME280;50659;48.078;16.308;2022-07-04T12:07:08;99350.75;;;36.15;27.08
64322;BME280;50659;48.078;16.308;2022-07-04T12:11:12;99351.69;;;35.50;27.92
64322;BME280;50659;48.078;16.308;2022-07-04T12:15:15;99348.56;;;34.49;29.82
64322;BME280;50659;48.078;16.308;2022-07-04T12:19:18;99355.13;;;35.41;30.40
64322;BME280;50659;48.078;16.308;2022-07-04T12:23:23;99357.06;;;36.06;28.85
64322;BME280;50659;48.078;16.308;2022-07-04T12:27:28;99351.94;;;35.78;29.38
64322;BME280;50659;48.078;16.308;2022-07-04T12:31:38;99350.38;;;35.12;29.63
64322;BME280;50659;48.078;16.308;2022-07-04T12:35:46;99344.34;;;34.83;29.75
64322;BME280;50659;48.078;16.308;2022-07-04T12:39:51;99346.50;;;34.49;30.19
64322;BME280;50659;48.078;16.308;2022-07-04T12:43:54;99339.41;;;34.34;31.08
64322;BME280;50659;48.078;16.308;2022-07-04T12:47:57;99351.06;;;34.17;30.56
64322;BME280;50659;48.078;16.308;2022-07-04T12:52:05;99350.88;;;33.68;31.50
64322;BME280;50659;48.078;16.308;2022-07-04T12:56:11;99343.06;;;32.50;34.36
64322;BME280;50659;48.078;16.308;2022-07-04T13:00:29;99354.25;;;32.13;36.05
64322;BME280;50659;48.078;16.308;2022-07-04T13:04:37;99342.97;;;32.64;35.19
64322;BME280;50659;48.078;16.308;2022-07-04T13:08:40;99340.56;;;33.07;34.44
64322;BME280;50659;48.078;16.308;2022-07-04T13:12:45;99331.81;;;33.65;32.73
64322;BME280;50659;48.078;16.308;2022-07-04T13:16:48;99330.59;;;33.62;33.17
64322;BME280;50659;48.078;16.308;2022-07-04T13:20:51;99323.38;;;33.21;33.92
64322;BME280;50659;48.078;16.308;2022-07-04T13:24:54;99321.22;;;33.32;33.85
64322;BME280;50659;48.078;16.308;2022-07-04T13:28:59;99318.13;;;33.16;34.39
64322;BME280;50659;48.078;16.308;2022-07-04T13:33:12;99329.56;;;32.65;34.32
64322;BME280;50659;48.078;16.308;2022-07-04T13:37:15;99338.00;;;32.17;34.13
64322;BME280;50659;48.078;16.308;2022-07-04T13:41:19;99328.72;;;32.06;37.73
64322;BME280;50659;48.078;16.308;2022-07-04T13:45:23;99325.34;;;29.86;43.09
64322;BME280;50659;48.078;16.308;2022-07-04T13:49:27;99314.34;;;28.95;46.71
64322;BME280;50659;48.078;16.308;2022-07-04T13:53:30;99320.59;;;30.35;43.93
64322;BME280;50659;48.078;16.308;2022-07-04T13:57:36;99331.53;;;31.00;37.54
64322;BME280;50659;48.078;16.308;2022-07-04T14:01:41;99314.72;;;31.64;37.23
64322;BME280;50659;48.078;16.308;2022-07-04T14:05:44;99315.41;;;31.93;35.24
64322;BME280;50659;48.078;16.308;2022-07-04T14:09:47;99311.25;;;32.66;33.78
64322;BME280;50659;48.078;16.308;2022-07-04T14:13:50;99295.78;;;33.11;33.42
64322;BME280;50659;48.078;16.308;2022-07-04T14:17:55;99299.19;;;32.95;33.34
64322;BME280;50659;48.078;16.308;2022-07-04T14:21:59;99293.81;;;33.04;33.27
64322;BME280;50659;48.078;16.308;2022-07-04T14:26:02;99296.44;;;32.88;33.26
64322;BME280;50659;48.078;16.308;2022-07-04T14:30:06;99295.25;;;32.38;34.86
64322;BME280;50659;48.078;16.308;2022-07-04T14:34:11;99290.72;;;32.44;35.24
64322;BME280;50659;48.078;16.308;2022-07-04T14:38:14;99285.59;;;32.69;34.31
64322;BME280;50659;48.078;16.308;2022-07-04T14:42:17;99282.47;;;32.60;33.96
64322;BME280;50659;48.078;16.308;2022-07-04T14:46:21;99284.84;;;32.11;35.82
64322;BME280;50659;48.078;16.308;2022-07-04T14:50:25;99277.28;;;31.87;36.57
64322;BME280;50659;48.078;16.308;2022-07-04T14:54:28;99275.78;;;31.65;36.58
64322;BME280;50659;48.078;16.308;2022-07-04T14:58:32;99273.75;;;31.58;36.69
64322;BME280;50659;48.078;16.308;2022-07-04T15:02:35;99277.50;;;31.48;36.72
64322;BME280;50659;48.078;16.308;2022-07-04T15:06:39;99278.78;;;31.23;37.11
64322;BME280;50659;48.078;16.308;2022-07-04T15:10:42;99278.41;;;31.28;36.93
64322;BME280;50659;48.078;16.308;2022-07-04T15:15:00;99270.69;;;31.15;38.19
64322;BME280;50659;48.078;16.308;2022-07-04T15:19:03;99282.88;;;31.01;38.80
64322;BME280;50659;48.078;16.308;2022-07-04T15:23:08;99287.38;;;30.92;38.02
64322;BME280;50659;48.078;16.308;2022-07-04T15:27:28;99276.41;;;31.01;38.29
64322;BME280;50659;48.078;16.308;2022-07-04T15:31:31;99276.72;;;31.41;38.57
64322;BME280;50659;48.078;16.308;2022-07-04T15:35:35;99275.38;;;31.73;36.80
64322;BME280;50659;48.078;16.308;2022-07-04T15:39:39;99274.06;;;31.88;35.96
64322;BME280;50659;48.078;16.308;2022-07-04T15:43:43;99283.09;;;31.66;34.06
64322;BME280;50659;48.078;16.308;2022-07-04T15:47:46;99288.03;;;31.48;33.51
64322;BME280;50659;48.078;16.308;2022-07-04T15:51:49;99294.53;;;31.48;33.22
64322;BME280;50659;48.078;16.308;2022-07-04T15:55:54;99282.41;;;31.31;33.41
64322;BME280;50659;48.078;16.308;2022-07-04T15:59:57;99283.31;;;30.93;33.59
64322;BME280;50659;48.078;16.308;2022-07-04T16:04:01;99266.69;;;30.95;34.03
64322;BME280;50659;48.078;16.308;2022-07-04T16:08:05;99273.22;;;30.81;34.28
64322;BME280;50659;48.078;16.308;2022-07-04T16:12:10;99263.91;;;30.70;33.83
64322;BME280;50659;48.078;16.308;2022-07-04T16:16:13;99269.56;;;30.53;36.46
64322;BME280;50659;48.078;16.308;2022-07-04T16:20:16;99258.59;;;29.95;38.97
64322;BME280;50659;48.078;16.308;2022-07-04T16:24:20;99248.75;;;29.51;40.25
64322;BME280;50659;48.078;16.308;2022-07-04T16:28:24;99248.69;;;29.30;41.77
64322;BME280;50659;48.078;16.308;2022-07-04T16:32:27;99230.78;;;29.05;42.24
64322;BME280;50659;48.078;16.308;2022-07-04T16:36:30;99222.25;;;28.98;42.12
64322;BME280;50659;48.078;16.308;2022-07-04T16:40:33;99213.31;;;28.89;42.89
64322;BME280;50659;48.078;16.308;2022-07-04T16:44:38;99196.34;;;28.89;43.45
64322;BME280;50659;48.078;16.308;2022-07-04T16:48:41;99191.78;;;28.64;43.59
64322;BME280;50659;48.078;16.308;2022-07-04T16:52:51;99204.69;;;28.61;42.72
64322;BME280;50659;48.078;16.308;2022-07-04T16:56:55;99212.31;;;28.57;41.30
64322;BME280;50659;48.078;16.308;2022-07-04T17:01:00;99203.16;;;28.77;40.68
64322;BME280;50659;48.078;16.308;2022-07-04T17:05:04;99204.66;;;28.58;41.28
64322;BME280;50659;48.078;16.308;2022-07-04T17:09:07;99209.78;;;28.42;40.91
64322;BME280;50659;48.078;16.308;2022-07-04T17:13:10;99211.00;;;28.44;41.06
64322;BME280;50659;48.078;16.308;2022-07-04T17:17:15;99206.53;;;28.36;40.95
64322;BME280;50659;48.078;16.308;2022-07-04T17:21:19;99202.63;;;28.58;40.63
64322;BME280;50659;48.078;16.308;2022-07-04T17:25:22;99217.19;;;28.57;40.26
64322;BME280;50659;48.078;16.308;2022-07-04T17:29:26;99219.84;;;28.39;41.24
64322;BME280;50659;48.078;16.308;2022-07-04T17:33:31;99222.91;;;28.20;41.40
64322;BME280;50659;48.078;16.308;2022-07-04T17:37:34;99205.63;;;27.82;41.66
64322;BME280;50659;48.078;16.308;2022-07-04T17:41:37;99210.41;;;27.78;41.33
64322;BME280;50659;48.078;16.308;2022-07-04T17:45:45;99217.16;;;27.66;41.90
64322;BME280;50659;48.078;16.308;2022-07-04T17:49:49;99223.44;;;27.49;41.72
64322;BME280;50659;48.078;16.308;2022-07-04T17:53:52;99240.28;;;27.42;41.79
64322;BME280;50659;48.078;16.308;2022-07-04T17:57:55;99245.13;;;27.42;41.25
64322;BME280;50659;48.078;16.308;2022-07-04T18:01:58;99253.13;;;27.40;40.39
64322;BME280;50659;48.078;16.308;2022-07-04T18:06:03;99250.72;;;27.38;39.87
64322;BME280;50659;48.078;16.308;2022-07-04T18:10:06;99250.13;;;27.26;41.91
64322;BME280;50659;48.078;16.308;2022-07-04T18:14:13;99260.41;;;27.11;44.17
64322;BME280;50659;48.078;16.308;2022-07-04T18:18:17;99261.84;;;26.98;45.83
64322;BME280;50659;48.078;16.308;2022-07-04T18:22:21;99253.66;;;26.64;46.42
64322;BME280;50659;48.078;16.308;2022-07-04T18:26:24;99254.72;;;26.52;49.07
64322;BME280;50659;48.078;16.308;2022-07-04T18:30:29;99273.41;;;26.16;48.39
64322;BME280;50659;48.078;16.308;2022-07-04T18:34:34;99275.16;;;26.24;48.29
64322;BME280;50659;48.078;16.308;2022-07-04T18:38:39;99284.47;;;26.05;50.28
64322;BME280;50659;48.078;16.308;2022-07-04T18:42:42;99292.00;;;25.79;50.90
64322;BME280;50659;48.078;16.308;2022-07-04T18:47:03;99298.09;;;25.43;52.81
64322;BME280;50659;48.078;16.308;2022-07-04T18:51:13;99296.78;;;25.37;53.74
64322;BME280;50659;48.078;16.308;2022-07-04T18:55:19;99303.41;;;25.10;55.04
64322;BME280;50659;48.078;16.308;2022-07-04T18:59:22;99305.00;;;24.92;54.77
64322;BME280;50659;48.078;16.308;2022-07-04T19:03:25;99321.72;;;24.69;57.27
64322;BME280;50659;48.078;16.308;2022-07-04T19:07:28;99325.31;;;24.70;58.72
64322;BME280;50659;48.078;16.308;2022-07-04T19:11:32;99333.75;;;24.70;58.29
64322;BME280;50659;48.078;16.308;2022-07-04T19:15:36;99341.63;;;24.64;58.06
64322;BME280;50659;48.078;16.308;2022-07-04T19:19:40;99355.03;;;24.71;57.40
64322;BME280;50659;48.078;16.308;2022-07-04T19:23:44;99342.47;;;24.65;57.67
64322;BME280;50659;48.078;16.308;2022-07-04T19:27:49;99355.63;;;24.61;57.64
64322;BME280;50659;48.078;16.308;2022-07-04T19:31:53;99354.06;;;24.48;58.70
64322;BME280;50659;48.078;16.308;2022-07-04T19:35:56;99359.78;;;24.36;57.85
64322;BME280;50659;48.078;16.308;2022-07-04T19:39:59;99360.25;;;24.38;59.02
64322;BME280;50659;48.078;16.308;2022-07-04T19:44:04;99371.47;;;24.38;59.85
64322;BME280;50659;48.078;16.308;2022-07-04T19:48:09;99370.53;;;24.34;60.43
64322;BME280;50659;48.078;16.308;2022-07-04T19:52:15;99374.34;;;24.26;61.93
64322;BME280;50659;48.078;16.308;2022-07-04T19:56:35;99369.78;;;23.79;62.13
64322;BME280;50659;48.078;16.308;2022-07-04T20:00:40;99388.28;;;23.40;63.69
64322;BME280;50659;48.078;16.308;2022-07-04T20:04:43;99380.34;;;23.30;64.82
64322;BME280;50659;48.078;16.308;2022-07-04T20:08:47;99373.31;;;22.73;67.10
64322;BME280;50659;48.078;16.308;2022-07-04T20:12:50;99358.63;;;22.88;66.86
64322;BME280;50659;48.078;16.308;2022-07-04T20:16:54;99354.63;;;23.01;66.91
64322;BME280;50659;48.078;16.308;2022-07-04T20:20:58;99349.16;;;22.92;67.49
64322;BME280;50659;48.078;16.308;2022-07-04T20:25:02;99332.50;;;22.72;70.84
64322;BME280;50659;48.078;16.308;2022-07-04T20:29:11;99334.97;;;22.61;69.42
64322;BME280;50659;48.078;16.308;2022-07-04T20:33:16;99347.88;;;22.30;72.32
64322;BME280;50659;48.078;16.308;2022-07-04T20:37:19;99355.22;;;22.46;72.64
64322;BME280;50659;48.078;16.308;2022-07-04T20:41:22;99387.75;;;22.39;72.86
64322;BME280;50659;48.078;16.308;2022-07-04T20:45:25;99375.19;;;22.45;71.06
64322;BME280;50659;48.078;16.308;2022-07-04T20:49:29;99392.66;;;22.66;71.74
64322;BME280;50659;48.078;16.308;2022-07-04T20:53:33;99402.47;;;22.72;68.10
64322;BME280;50659;48.078;16.308;2022-07-04T20:57:36;99389.06;;;22.65;69.75
64322;BME280;50659;48.078;16.308;2022-07-04T21:01:39;99397.22;;;22.70;70.86
64322;BME280;50659;48.078;16.308;2022-07-04T21:05:50;99396.63;;;22.77;70.02
64322;BME280;50659;48.078;16.308;2022-07-04T21:09:53;99396.53;;;22.85;69.16
64322;BME280;50659;48.078;16.308;2022-07-04T21:13:56;99394.84;;;23.20;68.19
64322;BME280;50659;48.078;16.308;2022-07-04T21:18:00;99400.91;;;23.22;67.62
64322;BME280;50659;48.078;16.308;2022-07-04T21:22:05;99398.78;;;23.31;66.56
64322;BME280;50659;48.078;16.308;2022-07-04T21:26:08;99399.13;;;23.30;67.11
64322;BME280;50659;48.078;16.308;2022-07-04T21:30:12;99404.75;;;23.30;65.45